Time;durP1;ratioP1;P1;durP2;ratioP2;P2;SDS_P1;SDS_P2;PMS_P1;PMS_P2;Temp;Humidity;BMP_temperature;BMP_pressure;BME280_temperature;BME280_humidity;BME280_pressure;Samples;Min_cycle;Max_cycle;Signal;HPM_P1;HPM_P2
2022/05/19 00:01:37;;;;;;;82.22;60.35;;;18.10;99.90;;;;;;5049671;28;20059;-72
2022/05/19 00:04:03;;;;;;;83.93;60.00;;;18.10;99.90;;;;;;5049422;28;20498;-72
2022/05/19 00:06:29;;;;;;;73.65;59.10;;;18.10;99.90;;;;;;5047258;28;20053;-72
2022/05/19 00:08:54;;;;;;;72.40;54.55;;;18.00;99.90;;;;;;5047164;28;20080;-72
2022/05/19 00:11:25;;;;;;;67.28;51.63;;;18.00;99.90;;;;;;5051090;28;20048;-72
2022/05/19 00:13:51;;;;;;;69.50;54.85;;;18.00;99.90;;;;;;5050544;28;20048;-72
2022/05/19 00:16:17;;;;;;;73.30;54.58;;;17.90;99.90;;;;;;5050368;28;20049;-72
2022/05/19 00:18:43;;;;;;;65.35;51.67;;;17.90;99.90;;;;;;5049627;28;20060;-72
2022/05/19 00:21:09;;;;;;;60.72;50.60;;;17.90;99.90;;;;;;5048212;28;20053;-72
2022/05/19 00:23:34;;;;;;;64.95;48.05;;;17.90;99.90;;;;;;5049239;28;20080;-72
2022/05/19 00:26:00;;;;;;;69.57;52.78;;;17.90;99.90;;;;;;5049659;28;20076;-73
2022/05/19 00:28:26;;;;;;;61.63;52.35;;;18.00;99.90;;;;;;5049744;28;20489;-72
2022/05/19 00:30:51;;;;;;;68.43;49.80;;;18.00;99.90;;;;;;5048228;28;20052;-73
2022/05/19 00:33:17;;;;;;;70.20;50.20;;;18.00;99.90;;;;;;5048602;28;20560;-73
2022/05/19 00:35:43;;;;;;;65.22;51.78;;;18.00;99.90;;;;;;5038901;28;20045;-73
2022/05/19 00:38:08;;;;;;;66.35;51.03;;;17.90;99.90;;;;;;5046974;28;20048;-73
2022/05/19 00:40:35;;;;;;;71.53;57.25;;;17.90;99.90;;;;;;5047747;28;20041;-73
2022/05/19 00:43:01;;;;;;;64.15;52.75;;;17.90;99.90;;;;;;5050082;28;20498;-73
2022/05/19 00:45:34;;;;;;;85.60;59.72;;;17.90;99.90;;;;;;5047752;28;20048;-73
2022/05/19 00:48:08;;;;;;;72.90;55.28;;;17.80;99.90;;;;;;5047897;28;20505;-73
2022/05/19 00:50:56;;;;;;;71.93;52.03;;;17.80;99.90;;;;;;5047387;28;20049;-73
2022/05/19 00:53:54;;;;;;;68.75;52.85;;;17.80;99.90;;;;;;5046592;28;20494;-73
2022/05/19 00:56:28;;;;;;;64.75;54.85;;;17.70;99.90;;;;;;5047787;28;20049;-73
2022/05/19 00:58:57;;;;;;;70.82;57.63;;;17.50;99.90;;;;;;5049070;28;20510;-73
2022/05/19 01:01:23;;;;;;;67.35;57.53;;;17.40;99.90;;;;;;5033604;28;20561;-73
2022/05/19 01:03:58;;;;;;;81.57;65.38;;;17.30;99.90;;;;;;5038473;28;20158;-73
2022/05/19 01:06:25;;;;;;;79.55;66.75;;;17.20;99.90;;;;;;5045455;28;20044;-73
2022/05/19 01:09:15;;;;;;;93.50;69.50;;;17.10;99.90;;;;;;5047163;28;20131;-72
2022/05/19 01:11:42;;;;;;;80.03;63.95;;;17.10;99.90;;;;;;5047750;28;20076;-72
2022/05/19 01:14:08;;;;;;;100.13;70.13;;;17.00;99.90;;;;;;5030855;28;20048;-72
2022/05/19 01:16:34;;;;;;;92.95;72.35;;;17.00;99.90;;;;;;5047216;28;20529;-72
2022/05/19 01:19:03;;;;;;;93.03;73.82;;;17.00;99.90;;;;;;5030712;28;20414;-73
2022/05/19 01:21:32;;;;;;;98.38;75.35;;;16.90;99.90;;;;;;5046617;28;20055;-73
2022/05/19 01:24:29;;;;;;;113.78;79.10;;;16.80;99.90;;;;;;5048661;28;20041;-73
2022/05/19 01:26:57;;;;;;;112.93;88.30;;;16.80;99.90;;;;;;5048673;28;20116;-73
2022/05/19 01:29:25;;;;;;;115.85;83.82;;;16.80;99.90;;;;;;5046812;28;20045;-72
2022/05/19 01:31:59;;;;;;;103.20;80.80;;;16.80;99.90;;;;;;5048191;28;20401;-73
2022/05/19 01:34:31;;;;;;;102.38;83.80;;;16.80;99.90;;;;;;5040983;28;20519;-73
2022/05/19 01:36:57;;;;;;;100.40;81.50;;;16.80;99.90;;;;;;5044188;28;20124;-74
2022/05/19 01:39:30;;;;;;;118.43;89.28;;;16.80;99.90;;;;;;5046837;28;20049;-73
2022/05/19 01:42:22;;;;;;;112.82;89.18;;;16.80;99.90;;;;;;5048137;28;20052;-73
2022/05/19 01:45:22;;;;;;;121.35;90.05;;;16.70;99.90;;;;;;5044081;28;20086;-72
2022/05/19 01:47:48;;;;;;;122.60;93.30;;;16.60;99.90;;;;;;5046465;28;20398;-72
2022/05/19 01:50:28;;;;;;;119.22;88.57;;;16.50;99.90;;;;;;5046601;28;20049;-71
2022/05/19 01:53:17;;;;;;;118.40;92.15;;;16.30;99.90;;;;;;5020683;28;20127;-72
2022/05/19 01:56:13;;;;;;;136.38;94.10;;;16.40;99.90;;;;;;5040090;28;20046;-72
2022/05/19 01:59:05;;;;;;;127.55;96.65;;;16.40;99.90;;;;;;5036046;28;20132;-72
2022/05/19 02:01:30;;;;;;;116.18;93.00;;;16.40;99.90;;;;;;5044638;28;20406;-73
2022/05/19 02:04:17;;;;;;;120.70;90.70;;;16.50;99.90;;;;;;5046689;28;20041;-71
2022/05/19 02:07:01;;;;;;;120.53;93.15;;;16.50;99.90;;;;;;5032111;28;20083;-73
2022/05/19 02:09:42;;;;;;;133.38;95.47;;;16.40;99.90;;;;;;5043646;28;20049;-72
2022/05/19 02:12:09;;;;;;;106.05;86.65;;;16.40;99.90;;;;;;5031191;28;20048;-72
2022/05/19 02:14:39;;;;;;;131.23;92.57;;;16.40;99.90;;;;;;5046658;28;20120;-72
2022/05/19 02:17:09;;;;;;;118.35;94.20;;;16.20;99.90;;;;;;5048162;28;20049;-72
2022/05/19 02:19:44;;;;;;;128.27;94.72;;;16.10;99.90;;;;;;5033527;28;20049;-72
2022/05/19 02:22:14;;;;;;;140.10;97.28;;;16.00;99.90;;;;;;5046972;28;20461;-73
2022/05/19 02:24:46;;;;;;;125.45;98.78;;;15.90;99.90;;;;;;5042110;28;20048;-72
2022/05/19 02:27:25;;;;;;;133.55;98.90;;;15.90;99.90;;;;;;5034281;28;20045;-72
2022/05/19 02:29:52;;;;;;;141.75;103.90;;;15.80;99.90;;;;;;5033659;28;20048;-72
2022/05/19 02:32:18;;;;;;;122.03;100.43;;;15.70;99.90;;;;;;5047468;28;20057;-72
2022/05/19 02:34:44;;;;;;;130.38;104.43;;;15.70;99.90;;;;;;5043273;28;20041;-72
2022/05/19 02:37:09;;;;;;;143.25;104.53;;;15.70;99.90;;;;;;5044684;28;20110;-72
2022/05/19 02:39:35;;;;;;;130.82;104.00;;;15.70;99.90;;;;;;5047135;28;20037;-72
2022/05/19 02:42:00;;;;;;;137.75;103.43;;;15.60;99.90;;;;;;5046695;28;20043;-72
2022/05/19 02:44:26;;;;;;;148.55;107.07;;;15.60;99.90;;;;;;5046915;28;20051;-72
2022/05/19 02:46:52;;;;;;;134.68;105.78;;;15.60;99.90;;;;;;5046677;28;20049;-72
2022/05/19 02:49:18;;;;;;;151.50;106.88;;;15.60;99.90;;;;;;5033231;28;20103;-73
2022/05/19 02:51:44;;;;;;;146.73;106.82;;;15.60;99.90;;;;;;5045748;28;20091;-73
2022/05/19 02:54:09;;;;;;;140.65;108.28;;;15.60;99.90;;;;;;5047042;28;20044;-72
2022/05/19 02:56:36;;;;;;;140.93;108.43;;;15.60;99.90;;;;;;5043725;28;20067;-72
2022/05/19 02:59:02;;;;;;;143.63;108.90;;;15.50;99.90;;;;;;5046029;28;20048;-73
2022/05/19 03:01:28;;;;;;;144.45;112.15;;;15.50;99.90;;;;;;5038214;28;20091;-73
2022/05/19 03:03:53;;;;;;;154.90;113.18;;;15.50;99.90;;;;;;5045469;28;20513;-72
2022/05/19 03:06:19;;;;;;;137.80;107.32;;;15.50;99.90;;;;;;5047375;28;20071;-72
2022/05/19 03:08:45;;;;;;;143.25;109.38;;;15.50;99.90;;;;;;5043365;28;20572;-72
2022/05/19 03:11:11;;;;;;;138.75;107.38;;;15.50;99.90;;;;;;5042131;28;20045;-72
2022/05/19 03:13:36;;;;;;;147.77;111.22;;;15.40;99.90;;;;;;5042070;28;20053;-72
2022/05/19 03:16:07;;;;;;;154.38;114.88;;;15.40;99.90;;;;;;5048335;28;20053;-72
2022/05/19 03:18:32;;;;;;;147.77;112.45;;;15.40;99.90;;;;;;5042636;28;20123;-72
2022/05/19 03:20:58;;;;;;;147.85;112.05;;;15.40;99.90;;;;;;5046279;28;20128;-72
2022/05/19 03:23:24;;;;;;;153.77;117.65;;;15.40;99.90;;;;;;5045001;28;20067;-73
2022/05/19 03:25:49;;;;;;;153.13;111.88;;;15.40;99.90;;;;;;5044074;28;20052;-73
2022/05/19 03:28:15;;;;;;;148.15;111.05;;;15.40;99.90;;;;;;5050133;28;20423;-73
2022/05/19 03:30:42;;;;;;;141.05;103.95;;;15.30;99.90;;;;;;5032455;28;20605;-73
2022/05/19 03:33:07;;;;;;;153.55;112.50;;;15.30;99.90;;;;;;5050004;28;20660;-74
2022/05/19 03:35:34;;;;;;;143.15;111.18;;;15.30;99.90;;;;;;5049016;28;20048;-74
2022/05/19 03:37:59;;;;;;;147.75;112.00;;;15.30;99.90;;;;;;5050672;28;20072;-74
2022/05/19 03:40:25;;;;;;;158.55;115.47;;;15.30;99.90;;;;;;5045470;28;20057;-74
2022/05/19 03:42:51;;;;;;;163.63;123.25;;;15.30;99.90;;;;;;5049390;28;20053;-74
2022/05/19 03:45:16;;;;;;;167.73;120.50;;;15.40;99.90;;;;;;5049423;28;20076;-74
2022/05/19 03:47:42;;;;;;;155.20;116.47;;;15.40;99.90;;;;;;5049038;28;20126;-74
2022/05/19 03:50:09;;;;;;;156.00;117.40;;;15.40;99.90;;;;;;5049992;28;20061;-74
2022/05/19 03:52:40;;;;;;;152.90;114.05;;;15.40;99.90;;;;;;5049748;28;20505;-73
2022/05/19 03:55:06;;;;;;;163.32;120.60;;;15.40;99.90;;;;;;5049408;28;20794;-74
2022/05/19 03:57:32;;;;;;;159.05;115.13;;;15.40;99.90;;;;;;5047405;28;20049;-71
2022/05/19 03:59:58;;;;;;;161.35;116.43;;;15.40;99.90;;;;;;5050089;28;20045;-71
2022/05/19 04:02:23;;;;;;;165.63;118.35;;;15.40;99.90;;;;;;5048734;28;20557;-71
2022/05/19 04:04:49;;;;;;;163.80;117.55;;;15.40;99.90;;;;;;5039653;28;20056;-71
2022/05/19 04:07:15;;;;;;;137.43;107.97;;;15.40;99.90;;;;;;5042892;28;20441;-70
2022/05/19 04:09:41;;;;;;;135.65;103.80;;;15.50;99.90;;;;;;5035108;28;20115;-70
2022/05/19 04:12:07;;;;;;;132.45;103.65;;;15.50;99.90;;;;;;5048474;28;20545;-70
2022/05/19 04:14:34;;;;;;;128.98;99.60;;;15.60;99.90;;;;;;5049739;28;20049;-70
2022/05/19 04:17:00;;;;;;;130.30;100.32;;;15.70;99.90;;;;;;5041491;28;20096;-69
2022/05/19 04:19:26;;;;;;;136.43;105.97;;;15.70;99.90;;;;;;5042976;28;20429;-70
2022/05/19 04:21:51;;;;;;;136.65;103.78;;;15.80;99.90;;;;;;5049149;28;20838;-70
2022/05/19 04:24:17;;;;;;;128.90;98.68;;;15.80;99.90;;;;;;5046074;28;20045;-70
2022/05/19 04:26:42;;;;;;;130.95;99.57;;;15.80;99.90;;;;;;5048465;28;20048;-70
2022/05/19 04:29:08;;;;;;;112.70;93.22;;;15.90;99.90;;;;;;5047218;28;20054;-70
2022/05/19 04:31:34;;;;;;;121.82;97.68;;;15.90;99.90;;;;;;5043632;28;20037;-71
2022/05/19 04:33:59;;;;;;;141.30;109.38;;;15.90;99.90;;;;;;5046013;28;20059;-73
2022/05/19 04:36:26;;;;;;;136.25;110.13;;;15.90;99.90;;;;;;5049249;28;20834;-72
2022/05/19 04:38:53;;;;;;;138.80;106.85;;;15.90;99.90;;;;;;5048809;28;20049;-72
2022/05/19 04:41:18;;;;;;;142.43;111.07;;;15.80;99.90;;;;;;5048840;28;20106;-72
2022/05/19 04:43:44;;;;;;;148.38;112.00;;;15.90;99.90;;;;;;5045310;28;20773;-72
2022/05/19 04:46:10;;;;;;;136.23;107.88;;;15.90;99.90;;;;;;5048672;28;20076;-74
2022/05/19 04:48:35;;;;;;;141.32;111.60;;;15.90;99.90;;;;;;5048845;28;20055;-73
2022/05/19 04:51:01;;;;;;;147.38;112.07;;;16.00;99.90;;;;;;5046790;28;20041;-74
2022/05/19 04:53:27;;;;;;;151.38;118.65;;;16.00;99.90;;;;;;5047530;28;20962;-73
2022/05/19 04:55:53;;;;;;;148.27;111.20;;;16.10;99.90;;;;;;5046268;28;20052;-73
2022/05/19 04:58:21;;;;;;;142.43;111.65;;;16.20;99.90;;;;;;5049320;28;20132;-73
2022/05/19 05:00:51;;;;;;;137.90;104.32;;;16.30;99.90;;;;;;5047963;28;20049;-73
2022/05/19 05:03:17;;;;;;;137.18;106.28;;;16.40;99.90;;;;;;5034087;28;20041;-73
2022/05/19 05:05:43;;;;;;;131.65;107.85;;;16.40;99.90;;;;;;5044458;28;20043;-73
2022/05/19 05:08:09;;;;;;;130.77;103.72;;;16.50;99.90;;;;;;5044263;28;20053;-72
2022/05/19 05:10:35;;;;;;;123.25;97.15;;;16.60;99.90;;;;;;5046307;28;20483;-71
2022/05/19 05:13:10;;;;;;;128.38;95.72;;;16.60;99.90;;;;;;5049499;28;20041;-71
2022/05/19 05:15:36;;;;;;;130.05;96.70;;;16.70;99.90;;;;;;5045984;28;20049;-72
2022/05/19 05:18:03;;;;;;;121.65;98.13;;;16.70;99.90;;;;;;5037255;28;20510;-73
2022/05/19 05:20:28;;;;;;;122.07;92.28;;;16.80;99.90;;;;;;5047004;28;20138;-73
2022/05/19 05:22:54;;;;;;;116.75;91.35;;;16.90;99.90;;;;;;5044564;28;20080;-71
2022/05/19 05:25:20;;;;;;;116.03;92.43;;;17.00;99.90;;;;;;5043529;28;20060;-71
2022/05/19 05:27:46;;;;;;;109.82;89.07;;;17.00;99.90;;;;;;5046967;28;20045;-71
2022/05/19 05:30:12;;;;;;;119.88;88.10;;;17.10;99.90;;;;;;5043992;28;20490;-71
2022/05/19 05:32:39;;;;;;;103.40;87.85;;;17.20;99.90;;;;;;5048226;28;20048;-71
2022/05/19 05:35:08;;;;;;;98.65;81.05;;;17.20;99.90;;;;;;5048050;28;20072;-71
2022/05/19 05:37:34;;;;;;;89.63;70.68;;;17.40;99.90;;;;;;5047991;28;20438;-71
2022/05/19 05:39:59;;;;;;;88.40;70.13;;;17.50;99.90;;;;;;5046402;28;20052;-71
2022/05/19 05:42:25;;;;;;;84.40;67.03;;;17.50;99.90;;;;;;5048332;28;20052;-71
2022/05/19 05:44:51;;;;;;;84.25;66.32;;;17.70;99.90;;;;;;5046658;28;20069;-71
2022/05/19 05:47:17;;;;;;;73.72;64.70;;;17.80;99.90;;;;;;5047473;28;20398;-72
2022/05/19 05:49:42;;;;;;;72.50;61.38;;;17.90;99.90;;;;;;5045144;28;20033;-71
2022/05/19 05:52:08;;;;;;;73.63;60.30;;;18.00;99.90;;;;;;5042323;28;20178;-71
2022/05/19 05:54:35;;;;;;;61.60;55.08;;;18.10;99.90;;;;;;5034698;28;20856;-71
2022/05/19 05:57:01;;;;;;;63.92;57.10;;;18.30;99.90;;;;;;5038323;28;20219;-72
2022/05/19 05:59:27;;;;;;;62.22;52.17;;;18.40;99.90;;;;;;5041746;28;20136;-73
2022/05/19 06:01:52;;;;;;;64.75;53.95;;;18.50;99.90;;;;;;5035833;28;20156;-73
2022/05/19 06:04:18;;;;;;;68.05;54.47;;;18.60;99.90;;;;;;5046752;28;20106;-73
2022/05/19 06:06:46;;;;;;;62.30;53.73;;;18.80;99.90;;;;;;5046151;28;20140;-74
2022/05/19 06:09:13;;;;;;;55.30;48.80;;;19.00;99.90;;;;;;5040804;28;20517;-74
2022/05/19 06:11:39;;;;;;;53.33;47.15;;;19.10;99.90;;;;;;5041477;28;20441;-75
2022/05/19 06:14:04;;;;;;;52.35;46.63;;;19.20;99.90;;;;;;5047295;28;20045;-75
2022/05/19 06:16:30;;;;;;;58.83;47.80;;;19.40;99.90;;;;;;5047269;28;20490;-74
2022/05/19 06:18:56;;;;;;;49.28;43.22;;;19.40;99.90;;;;;;5035321;28;20056;-75
2022/05/19 06:21:22;;;;;;;54.28;42.70;;;19.50;99.90;;;;;;5016934;28;20761;-75
2022/05/19 06:23:47;;;;;;;54.92;40.63;;;19.60;99.90;;;;;;5047021;28;20048;-73
2022/05/19 06:26:13;;;;;;;46.03;38.58;;;19.70;99.90;;;;;;5039299;28;20180;-73
2022/05/19 06:28:39;;;;;;;41.53;37.03;;;19.80;99.90;;;;;;5042544;28;20083;-72
2022/05/19 06:31:06;;;;;;;47.53;35.10;;;19.90;99.90;;;;;;5045394;28;20581;-75
2022/05/19 06:33:35;;;;;;;39.42;33.35;;;20.00;99.90;;;;;;5045639;28;20053;-76
2022/05/19 06:36:03;;;;;;;36.22;30.58;;;20.10;99.90;;;;;;5046868;28;20706;-75
2022/05/19 06:38:29;;;;;;;38.63;27.25;;;20.20;99.90;;;;;;5045070;28;20133;-76
2022/05/19 06:42:00;;;;;;;38.97;25.83;;;20.30;99.90;;;;;;5045840;28;20123;-75
2022/05/19 06:43:40;;;;;;;30.95;27.73;;;20.40;99.90;;;;;;5046495;28;20486;-75
2022/05/19 06:46:05;;;;;;;27.20;24.25;;;20.50;99.90;;;;;;5044120;28;20056;-75
2022/05/19 06:48:31;;;;;;;26.67;23.83;;;20.70;99.90;;;;;;5044278;28;20040;-76
2022/05/19 06:50:57;;;;;;;36.35;24.67;;;21.00;99.90;;;;;;5048911;28;20363;-76
2022/05/19 06:53:23;;;;;;;35.75;25.38;;;21.20;99.90;;;;;;5050252;28;20049;-76
2022/05/19 06:55:49;;;;;;;26.00;21.63;;;21.40;99.90;;;;;;5039723;28;20394;-76
2022/05/19 06:58:15;;;;;;;31.98;22.08;;;21.70;99.90;;;;;;5051027;28;20053;-76
2022/05/19 07:00:40;;;;;;;27.00;21.60;;;21.90;99.90;;;;;;5046116;28;20159;-76
2022/05/19 07:03:07;;;;;;;29.33;21.00;;;22.00;99.90;;;;;;5047680;28;20052;-73
2022/05/19 07:05:39;;;;;;;31.50;24.38;;;22.10;99.90;;;;;;5033681;28;20045;-77
2022/05/19 07:08:06;;;;;;;33.97;24.40;;;22.30;99.90;;;;;;5050344;28;20119;-72
2022/05/19 07:10:33;;;;;;;26.25;20.70;;;22.30;99.90;;;;;;5050635;28;20048;-72
2022/05/19 07:12:59;;;;;;;26.87;24.17;;;22.30;99.90;;;;;;5050188;28;20063;-75
2022/05/19 07:15:27;;;;;;;26.88;23.95;;;22.30;99.90;;;;;;5043496;28;20059;-73
2022/05/19 07:17:53;;;;;;;;;;;22.30;99.90;;;;;;5050514;28;20065;-73
2022/05/19 07:23:04;;;;;;;34.05;24.45;;;22.20;99.90;;;;;;5051051;28;20052;-72
2022/05/19 07:25:30;;;;;;;28.58;23.77;;;22.30;99.90;;;;;;5048886;28;20124;-72
2022/05/19 07:27:56;;;;;;;30.35;23.08;;;22.50;99.90;;;;;;5049814;28;20128;-73
2022/05/19 07:30:22;;;;;;;29.58;25.05;;;22.70;99.90;;;;;;5049133;28;20091;-72
2022/05/19 07:32:47;;;;;;;34.40;24.42;;;22.80;99.90;;;;;;5048836;28;20045;-73
2022/05/19 07:35:14;;;;;;;26.45;23.33;;;22.90;99.90;;;;;;5046680;28;20106;-75
2022/05/19 07:37:40;;;;;;;30.50;26.13;;;22.90;99.90;;;;;;5045007;28;20136;-75
2022/05/19 07:40:07;;;;;;;30.73;26.38;;;22.80;99.90;;;;;;5048187;28;20129;-75
2022/05/19 07:42:33;;;;;;;23.42;21.00;;;22.60;99.90;;;;;;5049663;28;20219;-75
2022/05/19 07:44:59;;;;;;;26.13;23.42;;;22.70;99.90;;;;;;5049166;28;20131;-75
2022/05/19 07:47:29;;;;;;;30.35;24.30;;;22.70;99.90;;;;;;5048201;28;20153;-76
2022/05/19 07:49:56;;;;;;;37.45;24.55;;;22.70;99.90;;;;;;5049294;28;20057;-76
2022/05/19 07:52:22;;;;;;;27.85;24.85;;;22.70;99.90;;;;;;5042354;28;20060;-76
2022/05/19 07:54:48;;;;;;;32.03;28.17;;;22.70;99.90;;;;;;5023876;28;20189;-76
2022/05/19 07:57:14;;;;;;;30.95;27.67;;;22.60;99.90;;;;;;5035795;28;20131;-75
2022/05/19 07:59:40;;;;;;;35.00;29.77;;;22.50;99.90;;;;;;5048469;28;20383;-74
2022/05/19 08:02:07;;;;;;;33.80;27.70;;;22.30;99.90;;;;;;5046513;28;20042;-75
2022/05/19 08:04:34;;;;;;;39.55;29.88;;;22.20;99.90;;;;;;5042042;28;20447;-75
2022/05/19 08:07:01;;;;;;;46.03;32.22;;;22.20;99.90;;;;;;5034397;28;20465;-74
2022/05/19 08:15:34;;;;;;;35.60;31.63;;;21.90;99.90;;;;;;5035845;28;20529;-74
2022/05/19 08:17:54;;;;;;;35.97;30.40;;;21.80;99.90;;;;;;5038240;28;20064;-76
2022/05/19 08:20:20;;;;;;;39.55;30.98;;;21.80;99.90;;;;;;5039753;28;20049;-75
2022/05/19 08:22:46;;;;;;;39.90;33.00;;;21.80;99.90;;;;;;5048803;28;20052;-75
2022/05/19 08:25:13;;;;;;;39.13;31.65;;;21.70;99.90;;;;;;5047677;28;20120;-76
2022/05/19 08:27:42;;;;;;;38.55;34.25;;;21.70;99.90;;;;;;5047769;28;20045;-74
2022/05/19 08:30:08;;;;;;;51.60;39.60;;;21.60;99.90;;;;;;5045812;28;20076;-74
2022/05/19 08:32:34;;;;;;;48.83;43.55;;;21.50;99.90;;;;;;5045303;28;20421;-74
2022/05/19 08:34:59;;;;;;;51.22;45.63;;;21.20;99.90;;;;;;5044093;28;20036;-74
2022/05/19 08:37:25;;;;;;;46.92;41.63;;;20.90;99.90;;;;;;5049581;28;20048;-73
2022/05/19 08:39:51;;;;;;;53.10;45.55;;;20.60;99.90;;;;;;5048525;28;20111;-74
2022/05/19 08:42:18;;;;;;;53.47;46.17;;;20.50;99.90;;;;;;5049570;28;20048;-74
2022/05/19 08:44:51;;;;;;;53.85;44.30;;;20.40;99.90;;;;;;5046122;28;20052;-73
2022/05/19 08:47:20;;;;;;;51.10;45.45;;;20.50;99.90;;;;;;5049308;28;20075;-73
2022/05/19 08:50:01;;;;;;;55.15;46.83;;;20.50;99.90;;;;;;5040204;28;20072;-73
2022/05/19 08:52:39;;;;;;;51.25;45.72;;;20.30;99.90;;;;;;5038816;28;20774;-73
2022/05/19 08:55:06;;;;;;;47.92;42.72;;;20.40;99.90;;;;;;5027482;28;20522;-74
2022/05/19 08:57:50;;;;;;;48.65;43.35;;;20.40;99.90;;;;;;5029515;28;20044;-74
2022/05/19 09:00:24;;;;;;;52.58;44.83;;;20.40;99.90;;;;;;5028658;28;20072;-74
2022/05/19 09:02:56;;;;;;;51.67;45.72;;;20.40;99.90;;;;;;5045275;28;20045;-74
2022/05/19 09:05:36;;;;;;;52.78;46.88;;;20.40;99.90;;;;;;5046325;28;20520;-75
2022/05/19 09:08:13;;;;;;;55.92;43.53;;;20.30;99.90;;;;;;5047962;28;20409;-74
2022/05/19 09:10:52;;;;;;;55.20;45.70;;;20.40;99.90;;;;;;5048426;28;20057;-74
2022/05/19 09:13:24;;;;;;;57.80;48.08;;;20.30;99.90;;;;;;5049065;28;20052;-74
2022/05/19 09:15:50;;;;;;;57.42;49.40;;;20.30;99.90;;;;;;5045567;28;20490;-73
2022/05/19 09:18:20;;;;;;;49.65;44.25;;;20.30;99.90;;;;;;5048521;28;20049;-73
2022/05/19 09:21:05;;;;;;;60.33;49.53;;;20.40;99.90;;;;;;5048894;28;20049;-72
2022/05/19 09:23:35;;;;;;;56.78;45.83;;;20.50;99.90;;;;;;5048672;28;20080;-72
2022/05/19 09:26:44;;;;;;;56.70;45.80;;;20.50;99.90;;;;;;5048600;28;20048;-72
2022/05/19 09:29:15;;;;;;;55.85;45.25;;;20.50;99.90;;;;;;5044432;28;20162;-73
2022/05/19 09:31:45;;;;;;;56.08;48.40;;;20.50;99.90;;;;;;5039972;28;20065;-73
2022/05/19 09:34:11;;;;;;;55.17;47.45;;;20.60;99.90;;;;;;5046955;28;20045;-73
2022/05/19 09:36:41;;;;;;;52.17;43.60;;;20.70;99.90;;;;;;5047825;28;20041;-73
2022/05/19 09:39:18;;;;;;;50.90;43.88;;;20.70;99.90;;;;;;5048002;28;20048;-73
2022/05/19 09:41:54;;;;;;;53.53;46.13;;;20.80;99.90;;;;;;5048575;28;20494;-73
2022/05/19 09:44:27;;;;;;;51.70;45.90;;;20.80;99.90;;;;;;5045409;28;20047;-73
2022/05/19 09:46:54;;;;;;;47.25;42.13;;;21.00;99.90;;;;;;5048397;28;20059;-74
2022/05/19 09:49:33;;;;;;;44.88;39.97;;;21.00;99.90;;;;;;5040730;28;20382;-74
2022/05/19 09:52:04;;;;;;;49.17;39.28;;;21.00;99.90;;;;;;5039542;28;20452;-74
2022/05/19 09:54:31;;;;;;;46.97;41.90;;;21.20;99.90;;;;;;5038149;28;20129;-74
2022/05/19 09:57:13;;;;;;;53.05;43.15;;;21.30;99.90;;;;;;5042730;28;20053;-73
2022/05/19 09:59:46;;;;;;;52.42;42.15;;;21.50;99.90;;;;;;5033921;28;20462;-74
2022/05/19 10:02:32;;;;;;;47.13;39.97;;;21.60;99.90;;;;;;5046680;28;20124;-75
2022/05/19 10:04:59;;;;;;;49.35;42.35;;;21.80;99.90;;;;;;5034626;28;20052;-74
2022/05/19 10:07:35;;;;;;;46.35;41.63;;;21.90;99.90;;;;;;5039661;28;20512;-74
2022/05/19 10:10:15;;;;;;;52.30;42.72;;;22.00;99.90;;;;;;5031012;28;20398;-74
2022/05/19 10:12:47;;;;;;;49.38;41.88;;;22.20;99.90;;;;;;5047400;28;20447;-74
2022/05/19 10:15:15;;;;;;;48.72;40.97;;;22.10;99.90;;;;;;5046904;28;20568;-75
2022/05/19 10:18:00;;;;;;;47.33;41.20;;;22.20;99.90;;;;;;5045501;28;20512;-75
2022/05/19 10:20:30;;;;;;;51.58;45.92;;;22.30;99.90;;;;;;5047431;28;20842;-75
2022/05/19 10:23:28;;;;;;;50.42;45.00;;;22.30;99.90;;;;;;5046276;28;20119;-75
2022/05/19 10:26:20;;;;;;;50.63;45.33;;;22.30;99.90;;;;;;5040924;28;20058;-74
2022/05/19 10:32:12;;;;;;;48.80;40.50;;;22.30;99.90;;;;;;5044599;28;20099;-75
2022/05/19 10:35:05;;;;;;;42.58;38.13;;;22.20;99.90;;;;;;5045743;28;20461;-75
2022/05/19 10:37:59;;;;;;;44.55;39.95;;;22.30;99.90;;;;;;5047745;28;20059;-76
2022/05/19 10:40:38;;;;;;;50.80;40.75;;;22.50;99.90;;;;;;5046217;28;20055;-75
2022/05/19 10:43:07;;;;;;;46.22;40.78;;;22.60;99.90;;;;;;5041277;28;20052;-74
2022/05/19 10:45:56;;;;;;;48.75;41.42;;;22.60;99.90;;;;;;5009361;28;20045;-74
2022/05/19 10:48:28;;;;;;;54.70;42.95;;;22.80;99.90;;;;;;5034904;28;20071;-74
2022/05/19 10:51:10;;;;;;;50.53;41.33;;;23.00;99.90;;;;;;5045986;28;20058;-74
2022/05/19 10:53:39;;;;;;;46.08;41.03;;;23.10;99.90;;;;;;5047422;28;20059;-73
2022/05/19 10:56:43;;;;;;;41.55;36.95;;;23.20;99.90;;;;;;5042358;28;20138;-74
2022/05/19 10:59:36;;;;;;;39.35;34.97;;;23.30;99.90;;;;;;5026128;28;20054;-73
2022/05/19 11:02:24;;;;;;;45.47;40.60;;;23.60;99.90;;;;;;5028104;28;20050;-73
2022/05/19 11:05:17;;;;;;;47.67;40.67;;;23.70;99.90;;;;;;5037986;28;20053;-73
2022/05/19 11:08:05;;;;;;;51.05;44.72;;;23.70;99.90;;;;;;5033199;28;20055;-74
2022/05/19 11:10:54;;;;;;;40.88;34.45;;;23.80;99.90;;;;;;5042942;28;20048;-73
2022/05/19 11:13:42;;;;;;;38.33;34.30;;;24.00;99.90;;;;;;5046253;28;20041;-74
2022/05/19 11:16:25;;;;;;;32.53;29.02;;;24.20;99.90;;;;;;5045660;28;20052;-74
2022/05/19 11:19:09;;;;;;;37.47;30.50;;;24.20;99.90;;;;;;5046584;28;20464;-74
2022/05/19 11:21:52;;;;;;;32.88;29.55;;;24.40;99.90;;;;;;5046489;28;20413;-74
2022/05/19 11:24:25;;;;;;;36.97;30.98;;;24.20;99.90;;;;;;5042884;28;20049;-74
2022/05/19 11:27:07;;;;;;;37.53;32.90;;;24.40;99.90;;;;;;5047543;28;20508;-74
2022/05/19 11:29:54;;;;;;;43.72;30.90;;;24.50;99.90;;;;;;5047009;28;20820;-74
2022/05/19 11:32:29;;;;;;;35.38;31.45;;;24.60;99.90;;;;;;5045268;28;20103;-74
2022/05/19 11:35:15;;;;;;;38.80;30.83;;;24.80;99.90;;;;;;5049085;28;20116;-74
2022/05/19 11:37:53;;;;;;;31.67;24.98;;;24.80;99.90;;;;;;5046071;28;20441;-75
2022/05/19 11:40:42;;;;;;;28.45;23.77;;;24.90;99.90;;;;;;5045465;28;20056;-75
2022/05/19 11:43:39;;;;;;;28.13;25.25;;;25.20;99.90;;;;;;5033228;28;20059;-75
2022/05/19 11:46:13;;;;;;;25.70;21.88;;;25.40;99.90;;;;;;5034256;28;20487;-75
2022/05/19 11:57:46;;;;;;;13.80;12.35;;;25.70;99.90;;;;;;5044338;28;20466;-75
2022/05/19 12:00:26;;;;;;;13.93;9.95;;;25.80;99.90;;;;;;5032061;28;20120;-75
2022/05/19 12:03:20;;;;;;;11.43;10.27;;;25.90;99.90;;;;;;5049141;28;20644;-73
2022/05/19 12:05:56;;;;;;;10.98;8.50;;;26.00;99.90;;;;;;5044624;28;20042;-74
2022/05/19 12:08:35;;;;;;;12.05;8.95;;;26.00;99.90;;;;;;5042731;28;20091;-74
2022/05/19 12:11:22;;;;;;;8.77;7.82;;;26.00;96.70;;;;;;5036179;28;20080;-74
2022/05/19 12:14:11;;;;;;;9.20;7.60;;;26.00;95.40;;;;;;5038646;28;20486;-73
2022/05/19 12:16:58;;;;;;;13.43;7.85;;;26.00;95.60;;;;;;5037277;28;20041;-74
2022/05/19 12:19:30;;;;;;;7.60;6.90;;;26.00;93.00;;;;;;5045910;28;20056;-74
2022/05/19 12:21:56;;;;;;;7.95;7.20;;;26.10;91.30;;;;;;5047696;28;20049;-74
2022/05/19 12:24:29;;;;;;;7.72;6.93;;;26.20;94.20;;;;;;5048565;28;20123;-74
2022/05/19 12:27:23;;;;;;;7.68;7.07;;;26.20;80.60;;;;;;5048311;28;20041;-73
2022/05/19 12:33:01;;;;;;;7.32;6.78;;;26.20;78.60;;;;;;5039312;28;20040;-73
2022/05/19 12:35:28;;;;;;;7.95;6.75;;;26.10;82.20;;;;;;5049649;28;20055;-73
2022/05/19 12:38:00;;;;;;;;;;;26.10;88.50;;;;;;5049705;28;20052;-73
2022/05/19 12:40:29;;;;;;;7.78;6.10;;;26.10;79.50;;;;;;5048095;28;19929;-72
2022/05/19 12:43:20;;;;;;;7.35;6.65;;;26.10;90.10;;;;;;5012971;28;20958;-73
2022/05/19 12:45:52;;;;;;;7.28;6.57;;;26.10;81.70;;;;;;5030503;28;20499;-73
2022/05/19 12:48:22;;;;;;;7.50;6.75;;;26.00;85.10;;;;;;5042074;28;20061;-73
2022/05/19 12:51:06;;;;;;;7.45;6.40;;;25.90;89.50;;;;;;5046677;28;20088;-73
2022/05/19 12:53:44;;;;;;;6.97;6.28;;;25.90;82.60;;;;;;5036702;28;20490;-73
2022/05/19 12:56:30;;;;;;;8.00;6.75;;;25.80;89.10;;;;;;5048038;28;20049;-72
2022/05/19 12:59:07;;;;;;;7.32;6.63;;;25.70;91.50;;;;;;5052417;28;20041;-72
2022/05/19 13:01:44;;;;;;;6.75;6.15;;;25.70;91.50;;;;;;5030943;28;20552;-72
2022/05/19 13:04:10;;;;;;;6.68;6.07;;;25.70;94.00;;;;;;5038916;28;20089;-73
2022/05/19 13:06:40;;;;;;;7.63;6.72;;;25.60;95.10;;;;;;5049154;28;20088;-72
2022/05/19 13:09:08;;;;;;;7.28;6.55;;;25.60;96.80;;;;;;5049588;28;20071;-72